Plano, Illinois
Current Conditions -  °F | °C
As of 3:52 PM on Friday 28 Nov 2014 (Local Time) from KARR Reporting Station
Haze Haze  
Wind Chill: 25°   Ceiling: 2000
Heat Index: 33°   Visibility: 5mi
Dew Point: 26°   Wind: 10mph
Humidity: 75%   Direction: 140°SE
Pressure: 29.97"   Gusts: NA
Location:  41.66°N, 88.54°W
Report Text: KARR 282152Z 14009KT 5SM HZ OVC020 01/M03 A2997 RMK AO2 SLP158 T00061033
Loading
Personal Weather Stations






























Interactive Weather Map New forecast layout! Learn more

10-Day Weather Forecast

Advertisements
Track Severe Weather on mobile